Time;durP1;ratioP1;P1;durP2;ratioP2;P2;SDS_P1;SDS_P2;PMS_P1;PMS_P2;Temp;Humidity;BMP_temperature;BMP_pressure;BME280_temperature;BME280_humidity;BME280_pressure;Samples;Min_cycle;Max_cycle;Signal;HPM_P1;HPM_P2
2022/08/10 00:00:57;;;;;;;4.50;1.50;;;21.10;54.90;;;20.42;41.65;97990.00;5093028;28;20909;-77
2022/08/10 00:03:23;;;;;;;2.17;1.67;;;21.00;55.00;;;20.35;41.84;97984.25;5092949;28;20405;-77
2022/08/10 00:05:53;;;;;;;3.10;1.50;;;20.80;55.20;;;20.22;42.12;97985.81;5093156;28;20758;-78
2022/08/10 00:08:19;;;;;;;3.88;1.60;;;20.80;55.60;;;20.24;42.38;97982.81;5093190;28;20405;-78
2022/08/10 00:10:45;;;;;;;4.35;1.65;;;20.80;55.70;;;20.22;42.38;97991.19;5092890;28;20394;-77
2022/08/10 00:13:11;;;;;;;3.25;1.70;;;20.80;55.80;;;20.22;42.50;97991.19;5092404;28;20433;-77
2022/08/10 00:15:37;;;;;;;2.97;1.63;;;20.80;55.90;;;20.20;42.63;97984.50;5092861;28;20398;-77
2022/08/10 00:18:03;;;;;;;1.80;1.55;;;20.80;55.90;;;20.20;42.69;97984.50;5092949;28;20402;-77
2022/08/10 00:20:29;;;;;;;3.47;1.70;;;20.70;55.90;;;20.15;43.01;97981.94;5092769;28;20402;-76
2022/08/10 00:22:57;;;;;;;2.67;1.40;;;20.70;56.20;;;20.15;42.75;97985.38;5092286;28;20398;-76
2022/08/10 00:25:22;;;;;;;2.63;1.63;;;20.80;56.20;;;20.12;43.03;97994.06;5092808;28;20411;-77
2022/08/10 00:27:48;;;;;;;2.60;1.40;;;20.80;56.30;;;20.12;43.00;97983.31;5092728;28;20408;-77
2022/08/10 00:30:14;;;;;;;2.87;1.33;;;20.80;56.30;;;20.13;43.28;97984.09;5108512;28;20483;-77
2022/08/10 00:32:40;;;;;;;3.77;1.70;;;20.80;56.40;;;20.17;43.23;97985.09;5092349;28;20410;-78
2022/08/10 00:35:07;;;;;;;4.37;1.50;;;20.80;56.40;;;20.08;43.50;97985.78;5092361;28;20432;-78
2022/08/10 00:37:33;;;;;;;3.47;1.63;;;20.80;56.60;;;20.13;43.34;97984.91;5092621;28;20513;-76
2022/08/10 00:40:01;;;;;;;3.22;1.73;;;20.70;56.60;;;20.10;43.39;97986.28;5092653;28;20401;-77
2022/08/10 00:42:27;;;;;;;2.92;1.60;;;20.70;56.80;;;20.08;43.85;97980.41;5092239;28;20479;-77
2022/08/10 00:44:52;;;;;;;3.58;1.63;;;20.70;57.00;;;20.02;43.88;97981.59;5091944;28;20402;-76
2022/08/10 00:47:19;;;;;;;3.35;1.77;;;20.70;57.10;;;20.06;43.64;97979.94;5091770;28;20455;-77
2022/08/10 00:49:45;;;;;;;2.35;1.52;;;20.70;57.00;;;19.95;44.06;97981.19;5091907;28;20779;-77
2022/08/10 00:52:13;;;;;;;2.80;1.70;;;20.60;57.30;;;19.87;44.51;97971.13;5092193;28;20871;-76
2022/08/10 00:54:42;;;;;;;2.92;1.67;;;20.50;57.80;;;19.81;44.55;97977.69;5091754;28;20394;-77
2022/08/10 00:57:10;;;;;;;3.33;1.65;;;20.40;57.90;;;19.80;44.52;97980.66;5092018;28;20448;-77
2022/08/10 00:59:36;;;;;;;3.42;1.50;;;20.40;57.90;;;19.74;44.64;97979.97;5092142;28;20489;-77
2022/08/10 01:02:02;;;;;;;3.60;1.80;;;20.40;58.10;;;19.76;44.72;97971.63;5091968;28;20590;-77
2022/08/10 01:04:28;;;;;;;2.17;1.70;;;20.30;58.20;;;19.67;44.89;97976.88;5091578;28;20394;-77
2022/08/10 01:07:25;;;;;;;3.63;1.80;;;20.30;59.00;;;19.66;45.09;97977.97;5091873;28;20390;-76
2022/08/10 01:10:12;;;;;;;3.07;1.83;;;20.30;58.50;;;19.66;45.00;97976.06;5091943;28;20394;-77
2022/08/10 01:12:49;;;;;;;2.58;1.80;;;20.20;58.60;;;19.60;45.47;97976.47;5093860;22;20976;-72
2022/08/10 01:15:23;;;;;;;2.20;1.50;;;20.20;58.80;;;19.58;45.54;97978.63;5071536;28;20416;-72
2022/08/10 01:17:54;;;;;;;2.13;1.45;;;20.20;58.90;;;19.50;45.86;97974.72;5071486;28;20402;-72
2022/08/10 01:20:32;;;;;;;3.72;1.52;;;20.10;59.30;;;19.47;46.19;97974.53;5071487;28;20433;-72
2022/08/10 01:23:48;;;;;;;3.10;1.67;;;20.00;59.40;;;19.44;46.29;97980.44;5071025;28;20414;-71
2022/08/10 01:26:41;;;;;;;2.22;1.45;;;20.10;59.60;;;19.47;46.13;97985.28;5071345;28;20404;-72
2022/08/10 01:29:34;;;;;;;5.65;1.48;;;20.10;59.60;;;19.47;46.17;97974.53;5063144;28;20419;-72
2022/08/10 01:32:03;;;;;;;3.03;1.52;;;20.10;59.60;;;19.43;46.41;97979.66;5071150;28;20404;-72
2022/08/10 01:34:36;;;;;;;3.17;1.85;;;20.10;59.60;;;19.48;46.22;97976.91;5070683;28;20458;-71
2022/08/10 01:37:10;;;;;;;1.60;1.50;;;20.10;59.60;;;19.40;46.40;97979.44;5071124;28;20399;-72
2022/08/10 01:39:42;;;;;;;4.05;1.98;;;20.00;59.80;;;19.37;46.59;97975.47;5071194;28;20881;-72
2022/08/10 01:42:14;;;;;;;1.92;1.40;;;20.00;59.80;;;19.34;46.78;97978.72;5070882;28;20415;-72
2022/08/10 01:44:48;;;;;;;2.72;1.40;;;20.00;60.00;;;19.37;46.79;97974.66;5070556;28;20504;-72
2022/08/10 01:50:07;;;;;;;2.58;1.80;;;20.00;60.00;;;19.34;46.84;97984.88;5070935;28;20800;-72
2022/08/10 01:52:35;;;;;;;3.03;1.45;;;19.90;60.10;;;19.23;47.20;97971.94;5070791;28;20894;-72
2022/08/10 01:55:02;;;;;;;1.98;1.70;;;19.90;60.50;;;19.20;47.36;97978.69;5052422;28;20396;-72
2022/08/10 01:57:31;;;;;;;2.17;1.45;;;19.90;60.60;;;19.16;47.58;97979.56;5070873;28;20591;-72
2022/08/10 02:00:01;;;;;;;4.60;1.40;;;19.80;60.80;;;19.15;47.55;97988.69;5070602;28;20400;-72
2022/08/10 02:02:29;;;;;;;4.68;1.83;;;19.80;61.60;;;19.15;47.37;97978.75;5070525;28;20411;-72
2022/08/10 02:04:57;;;;;;;2.80;1.70;;;19.80;61.60;;;19.10;47.68;97991.44;5070137;28;20399;-72
2022/08/10 02:07:27;;;;;;;3.50;1.77;;;19.70;61.00;;;19.07;47.84;97986.66;5070610;28;20505;-72
2022/08/10 02:09:59;;;;;;;3.38;2.03;;;19.70;61.30;;;19.03;48.10;97983.75;5070626;28;20387;-72
2022/08/10 02:12:30;;;;;;;3.35;1.70;;;19.70;61.70;;;18.99;48.24;97984.63;5070365;28;20425;-72
2022/08/10 02:15:01;;;;;;;3.10;1.55;;;19.70;61.70;;;18.96;48.26;97975.28;5070138;28;20757;-72
2022/08/10 02:17:34;;;;;;;4.05;2.03;;;19.60;61.90;;;18.97;48.65;97976.06;5070566;28;20403;-71
2022/08/10 02:20:06;;;;;;;4.60;1.90;;;19.60;62.10;;;18.87;48.71;97980.50;5070472;28;20449;-72
2022/08/10 02:22:34;;;;;;;3.05;1.88;;;19.50;62.40;;;18.83;49.14;97984.84;5070211;28;20415;-72
2022/08/10 02:25:03;;;;;;;4.78;2.00;;;19.50;62.60;;;18.77;48.92;97977.97;5069860;28;20415;-72
2022/08/10 02:27:31;;;;;;;3.53;2.00;;;19.40;62.80;;;18.75;49.19;97976.66;5070409;28;20392;-72
2022/08/10 02:30:01;;;;;;;4.35;1.98;;;19.40;63.00;;;18.69;49.28;97972.44;5070410;28;20924;-71
2022/08/10 02:32:29;;;;;;;3.25;2.08;;;19.30;63.20;;;18.63;49.63;97977.09;5070172;28;20441;-72
2022/08/10 02:34:56;;;;;;;1.92;1.73;;;19.30;63.30;;;18.61;49.73;97975.78;5069837;28;20404;-72
2022/08/10 02:37:25;;;;;;;3.50;2.05;;;19.20;63.40;;;18.55;50.10;97975.03;5070268;28;20400;-72
2022/08/10 02:39:51;;;;;;;3.60;2.00;;;19.30;63.70;;;18.57;49.73;97972.84;5070226;28;20400;-72
2022/08/10 02:42:23;;;;;;;2.42;1.65;;;19.20;63.70;;;18.54;49.88;97979.56;5070128;28;20460;-71
2022/08/10 02:44:56;;;;;;;4.25;1.90;;;19.20;63.80;;;18.52;50.09;97983.63;5069861;28;20761;-72
2022/08/10 02:47:29;;;;;;;3.00;1.70;;;19.20;63.90;;;18.49;50.23;97974.25;5070310;28;20434;-72
2022/08/10 02:50:07;;;;;;;4.75;2.35;;;19.20;64.00;;;18.50;50.43;97985.78;5070233;28;20406;-72
2022/08/10 02:52:40;;;;;;;5.05;2.25;;;19.10;64.20;;;18.45;50.40;97986.66;5070142;28;20396;-71
2022/08/10 02:55:15;;;;;;;3.55;1.90;;;19.00;64.40;;;18.36;50.65;97987.56;5069907;28;20399;-71
2022/08/10 02:57:47;;;;;;;4.93;2.20;;;19.00;64.60;;;18.38;50.70;97990.78;5070096;28;20888;-72
2022/08/10 03:00:15;;;;;;;2.83;2.00;;;19.00;64.80;;;18.26;51.07;97988.50;5070222;28;20505;-72
2022/08/10 03:02:45;;;;;;;4.82;2.10;;;18.90;65.10;;;18.24;51.38;97987.19;5069730;28;20402;-72
2022/08/10 03:05:13;;;;;;;3.97;2.00;;;19.00;65.50;;;18.25;51.16;97981.53;5069987;28;20841;-72
2022/08/10 03:07:46;;;;;;;3.88;1.83;;;18.90;65.50;;;18.21;51.58;97988.53;5070044;28;20399;-72
2022/08/10 03:10:17;;;;;;;3.35;2.08;;;18.90;65.80;;;18.19;51.78;97983.47;5070057;28;20402;-72
2022/08/10 03:12:47;;;;;;;3.13;2.20;;;18.90;65.80;;;18.19;51.71;97988.06;5072833;28;20411;-72
2022/08/10 03:15:14;;;;;;;4.28;2.00;;;18.90;65.90;;;18.17;51.81;97980.28;5073811;28;20394;-72
2022/08/10 03:17:44;;;;;;;4.68;2.05;;;18.80;66.00;;;18.09;52.02;97980.91;5073782;28;20399;-72
2022/08/10 03:20:12;;;;;;;2.47;1.92;;;18.80;66.30;;;18.05;52.41;97985.22;5073775;28;20399;-72
2022/08/10 03:22:39;;;;;;;3.47;1.98;;;18.80;66.50;;;18.06;52.13;97981.47;5073613;28;20475;-72
2022/08/10 03:25:08;;;;;;;2.50;1.80;;;18.80;66.50;;;18.05;52.23;97985.22;5073293;28;20478;-72
2022/08/10 03:27:36;;;;;;;4.05;2.30;;;18.80;66.60;;;18.04;52.21;97985.53;5073685;28;20392;-72
2022/08/10 03:30:04;;;;;;;5.20;2.07;;;18.70;66.70;;;18.03;52.58;97986.63;5073599;28;20429;-71
2022/08/10 03:32:32;;;;;;;5.60;1.98;;;18.70;66.80;;;17.98;52.70;97989.34;5073448;28;20415;-72
2022/08/10 03:34:59;;;;;;;3.75;2.03;;;18.70;67.00;;;17.90;53.10;97997.97;5072974;28;20400;-71
2022/08/10 03:37:28;;;;;;;2.47;1.80;;;18.60;67.40;;;17.81;53.29;97992.47;5073394;28;20478;-71
2022/08/10 03:39:54;;;;;;;5.05;2.15;;;18.50;67.60;;;17.83;53.25;97990.28;5073347;28;20414;-72
2022/08/10 03:42:22;;;;;;;5.05;2.10;;;18.50;67.80;;;17.80;53.32;97980.16;5073359;28;20396;-72
2022/08/10 03:44:50;;;;;;;5.90;2.00;;;18.50;67.90;;;17.81;53.33;97980.94;5072808;28;20420;-71
2022/08/10 03:47:18;;;;;;;3.83;2.00;;;18.50;67.90;;;17.81;53.39;97986.31;5073305;28;20682;-71
2022/08/10 03:49:47;;;;;;;2.22;1.90;;;18.50;68.00;;;17.81;53.40;97989.78;5073230;28;20696;-72
2022/08/10 03:52:15;;;;;;;4.03;2.35;;;18.50;68.10;;;17.76;53.37;97985.25;5071736;28;20416;-72
2022/08/10 03:54:42;;;;;;;3.15;2.10;;;18.50;68.00;;;17.74;53.58;97989.31;5072644;28;20423;-72
2022/08/10 03:57:09;;;;;;;7.05;2.30;;;18.50;68.20;;;17.75;53.46;97991.69;5073129;28;20392;-72
2022/08/10 03:59:35;;;;;;;4.90;2.25;;;18.50;68.10;;;17.72;53.40;97986.13;5073060;28;20424;-72
2022/08/10 04:02:05;;;;;;;2.63;1.83;;;18.40;68.10;;;17.70;53.61;97993.63;5072895;28;20486;-71
2022/08/10 04:04:31;;;;;;;5.82;2.47;;;18.40;68.20;;;17.61;53.63;97990.75;5072456;28;20921;-71
2022/08/10 04:06:58;;;;;;;8.38;2.67;;;18.30;68.60;;;17.54;53.95;97994.81;5073005;28;20400;-72
2022/08/10 04:09:28;;;;;;;4.53;2.20;;;18.20;69.00;;;17.48;54.41;97998.59;5072824;28;20400;-72
2022/08/10 04:11:54;;;;;;;4.43;2.47;;;18.20;69.20;;;17.41;54.53;98005.09;5072683;28;20502;-71
2022/08/10 04:14:20;;;;;;;4.85;2.10;;;18.10;69.30;;;17.40;54.47;98000.81;5072326;28;20411;-72
2022/08/10 04:16:46;;;;;;;4.00;2.40;;;18.10;69.30;;;17.44;54.58;98009.09;5054714;28;20491;-72
2022/08/10 04:19:13;;;;;;;4.25;2.60;;;18.20;69.30;;;17.44;54.59;98009.09;5072613;28;21005;-72
2022/08/10 04:21:46;;;;;;;2.33;2.00;;;18.20;69.50;;;17.42;54.75;98009.38;5071206;28;20404;-71
2022/08/10 04:24:19;;;;;;;3.88;1.85;;;18.20;69.60;;;17.43;54.68;98004.81;5070867;28;20408;-72
2022/08/10 04:26:46;;;;;;;2.75;2.10;;;18.20;69.50;;;17.42;54.62;98008.56;5072447;28;20396;-72
2022/08/10 04:29:13;;;;;;;4.33;2.03;;;18.10;69.40;;;17.39;54.74;98012.59;5072461;28;20781;-72
2022/08/10 04:31:42;;;;;;;7.00;2.45;;;18.10;69.50;;;17.40;54.72;98013.38;5072254;28;20426;-71
2022/08/10 04:34:08;;;;;;;5.22;2.67;;;18.10;69.60;;;17.46;54.65;98016.81;5071904;28;20400;-71
2022/08/10 04:36:37;;;;;;;7.25;2.85;;;18.10;69.70;;;17.41;54.75;98020.34;5072437;28;20395;-72
2022/08/10 04:39:03;;;;;;;6.18;2.95;;;18.10;69.90;;;17.37;55.07;98016.63;5072273;28;20407;-72
2022/08/10 04:41:29;;;;;;;5.40;2.97;;;18.00;70.10;;;17.33;55.43;98019.06;5072231;28;20399;-71
2022/08/10 04:43:56;;;;;;;11.65;3.30;;;18.00;70.30;;;17.36;55.35;98013.16;5071853;28;20866;-71
2022/08/10 04:46:22;;;;;;;4.88;2.65;;;18.00;70.60;;;17.32;55.52;98012.09;5072210;28;20403;-72
2022/08/10 04:48:48;;;;;;;5.88;2.80;;;18.00;70.70;;;17.37;55.60;98017.41;5072227;28;20396;-72
2022/08/10 04:51:16;;;;;;;10.25;3.35;;;18.00;70.70;;;17.41;55.77;98025.69;5072045;28;20769;-72
2022/08/10 04:53:42;;;;;;;5.75;2.78;;;18.10;71.00;;;17.35;56.08;98016.13;5071483;28;20387;-71
2022/08/10 04:56:08;;;;;;;7.65;2.95;;;18.00;71.40;;;17.31;56.47;98021.22;5071976;28;20745;-76
2022/08/10 04:58:34;;;;;;;5.50;2.60;;;17.90;71.80;;;17.28;56.32;98019.09;5071981;28;20400;-76
2022/08/10 05:01:02;;;;;;;6.68;2.70;;;17.90;72.00;;;17.32;56.37;98014.78;5071815;28;20415;-75
2022/08/10 05:03:28;;;;;;;5.68;2.50;;;18.00;72.10;;;17.34;56.50;98009.16;5071205;28;20909;-74
2022/08/10 05:05:54;;;;;;;3.70;2.40;;;18.00;72.10;;;17.42;56.66;98014.72;5071733;28;20402;-75
2022/08/10 05:08:20;;;;;;;3.57;2.23;;;18.10;73.10;;;17.54;56.61;98017.03;5071717;28;20399;-75
2022/08/10 05:10:45;;;;;;;5.83;2.40;;;18.30;72.20;;;17.66;56.11;98020.19;5053646;28;20416;-73
2022/08/10 05:13:11;;;;;;;4.55;2.42;;;18.30;71.60;;;17.72;55.84;98013.69;5070814;28;20423;-73
2022/08/10 05:15:40;;;;;;;4.47;2.10;;;18.40;71.50;;;17.78;55.67;98023.28;5071430;28;20408;-73
2022/08/10 05:18:07;;;;;;;3.88;2.17;;;18.40;71.10;;;17.86;55.65;98021.88;5071489;28;20954;-73
2022/08/10 05:20:33;;;;;;;3.33;1.87;;;18.60;71.20;;;17.95;55.84;98028.22;5071436;28;20494;-73
2022/08/10 05:22:59;;;;;;;4.45;1.92;;;18.60;71.20;;;18.05;56.13;98029.97;5071039;28;20647;-73
2022/08/10 05:25:25;;;;;;;5.07;2.40;;;18.70;71.30;;;18.12;55.99;98022.41;5071430;28;20733;-73
2022/08/10 05:27:51;;;;;;;2.97;1.73;;;18.90;71.30;;;18.20;55.59;98029.81;5071376;28;20438;-73
2022/08/10 05:30:20;;;;;;;2.90;2.00;;;18.90;71.00;;;18.27;55.80;98027.59;5071381;28;20482;-73
2022/08/10 05:32:46;;;;;;;2.53;2.00;;;19.00;71.20;;;18.34;55.85;98029.97;5070752;28;20419;-73
2022/08/10 05:35:14;;;;;;;3.75;2.13;;;19.00;71.10;;;18.41;55.97;98030.41;5070600;28;20396;-72
2022/08/10 05:37:40;;;;;;;3.53;2.10;;;19.10;71.30;;;18.47;55.71;98032.75;5071176;28;20813;-72
2022/08/10 05:40:08;;;;;;;3.45;1.95;;;19.20;71.20;;;18.53;55.50;98022.75;5071239;28;20391;-73
2022/08/10 05:42:34;;;;;;;2.83;1.80;;;19.20;70.90;;;18.58;55.24;98020.03;5071001;28;20392;-73
2022/08/10 05:45:00;;;;;;;3.90;2.05;;;19.30;70.80;;;18.65;54.89;98025.84;5070564;28;20407;-73
2022/08/10 05:47:27;;;;;;;4.82;2.40;;;19.40;70.50;;;18.73;54.13;98027.09;5070891;28;20403;-73
2022/08/10 05:49:54;;;;;;;2.70;1.80;;;19.40;69.60;;;18.79;54.18;98031.34;5070955;28;20887;-73
2022/08/10 05:52:22;;;;;;;5.07;2.30;;;19.50;69.50;;;18.84;53.69;98036.63;5052796;28;20757;-73
2022/08/10 05:54:49;;;;;;;4.05;2.25;;;19.50;69.10;;;18.89;53.70;98034.66;5070326;28;20396;-73
2022/08/10 05:57:18;;;;;;;6.28;3.08;;;19.60;68.80;;;18.96;53.52;98039.66;5070900;28;20391;-72
2022/08/10 05:59:55;;;;;;;4.72;2.70;;;19.60;68.90;;;19.03;53.24;98037.41;5070735;28;20501;-73
2022/08/10 06:02:27;;;;;;;4.22;2.47;;;19.70;68.70;;;19.10;53.19;98037.06;5070625;28;20431;-73
2022/08/10 06:04:55;;;;;;;2.75;2.20;;;19.70;68.40;;;19.16;53.15;98038.59;5070256;28;20400;-73
2022/08/10 06:07:26;;;;;;;3.55;2.30;;;19.80;68.30;;;19.21;53.20;98039.31;5070746;28;20449;-73
2022/08/10 06:09:54;;;;;;;3.08;1.90;;;19.90;68.20;;;19.26;52.67;98041.91;5070795;28;20396;-72
2022/08/10 06:12:22;;;;;;;4.50;1.80;;;19.90;68.00;;;19.31;52.60;98036.50;5070285;28;20415;-73
2022/08/10 06:15:02;;;;;;;4.47;1.80;;;20.00;67.80;;;19.35;52.22;98039.38;5070103;28;20584;-72
2022/08/10 06:17:29;;;;;;;3.63;2.10;;;20.00;67.60;;;19.39;52.09;98035.03;5070522;28;20445;-72
2022/08/10 06:19:56;;;;;;;4.05;1.95;;;20.10;67.40;;;19.43;51.98;98033.34;5070508;28;20889;-72
2022/08/10 06:22:25;;;;;;;3.08;2.35;;;20.10;67.20;;;19.46;51.59;98037.34;5070392;28;20494;-72
2022/08/10 06:24:51;;;;;;;4.53;2.30;;;20.10;66.90;;;19.48;51.22;98033.28;5070053;28;20865;-72
2022/08/10 06:27:17;;;;;;;2.85;1.73;;;20.20;66.70;;;19.51;51.12;98038.09;5070445;28;20404;-72
2022/08/10 06:29:45;;;;;;;3.92;2.13;;;20.20;66.20;;;19.55;51.15;98039.09;5070374;28;21007;-72
2022/08/10 06:32:12;;;;;;;7.95;1.85;;;20.20;66.10;;;19.59;50.44;98033.94;5070242;28;20544;-71
2022/08/10 06:34:43;;;;;;;5.30;1.70;;;20.20;65.60;;;19.65;50.26;98032.78;5069919;28;20400;-72
2022/08/10 06:37:11;;;;;;;3.85;1.80;;;20.30;65.30;;;19.69;49.77;98033.78;5070327;28;20403;-72
2022/08/10 06:39:39;;;;;;;2.33;1.63;;;20.30;64.90;;;19.73;49.50;98037.47;5070388;28;20400;-72
2022/08/10 06:42:13;;;;;;;4.03;1.80;;;20.30;64.50;;;19.77;48.94;98030.44;5070191;28;20387;-73
2022/08/10 06:44:47;;;;;;;4.17;1.80;;;20.40;64.00;;;19.81;48.77;98033.31;5069820;28;20395;-72
2022/08/10 06:47:16;;;;;;;4.00;1.77;;;20.40;63.70;;;19.86;48.70;98028.66;5073013;28;20407;-72
2022/08/10 06:49:44;;;;;;;4.68;1.90;;;20.50;63.40;;;19.90;48.11;98029.66;5074251;28;20396;-72
2022/08/10 06:52:13;;;;;;;2.80;1.58;;;20.50;63.00;;;19.96;47.98;98033.06;5074298;28;20443;-72
2022/08/10 06:54:41;;;;;;;4.63;1.60;;;20.60;62.80;;;20.02;48.11;98031.88;5073871;28;20398;-70
2022/08/10 06:57:09;;;;;;;4.07;1.70;;;20.60;62.80;;;20.06;47.83;98038.25;5074305;28;20384;-73
2022/08/10 06:59:40;;;;;;;3.25;1.50;;;20.60;62.30;;;20.10;47.66;98040.03;5074288;28;20510;-72
2022/08/10 07:02:09;;;;;;;3.83;1.90;;;20.70;62.40;;;20.13;47.34;98035.97;5072850;28;20893;-73
2022/08/10 07:04:43;;;;;;;3.30;1.70;;;20.70;61.90;;;20.18;47.27;98040.44;5073540;28;20818;-71
2022/08/10 07:07:13;;;;;;;2.97;1.63;;;20.80;62.60;;;20.23;46.98;98038.47;5073998;28;20393;-72
2022/08/10 07:09:41;;;;;;;5.07;1.92;;;20.80;61.50;;;20.28;46.35;98035.69;5073906;28;20392;-72
2022/08/10 07:12:09;;;;;;;4.13;1.83;;;20.90;60.90;;;20.31;46.25;98040.47;5068979;22;20427;-77
2022/08/10 07:14:38;;;;;;;4.38;1.70;;;20.90;60.50;;;20.33;45.95;98035.63;5073081;28;20869;-77
2022/08/10 07:17:06;;;;;;;3.90;1.80;;;20.90;60.30;;;20.37;45.85;98035.84;5073867;28;20457;-77
2022/08/10 07:19:32;;;;;;;6.72;1.70;;;21.00;60.00;;;20.44;45.61;98047.00;5073728;28;20410;-78
2022/08/10 07:22:00;;;;;;;5.18;1.85;;;21.00;60.00;;;20.48;45.79;98035.31;5073633;28;20881;-77
2022/08/10 07:24:27;;;;;;;4.67;1.60;;;21.10;60.00;;;20.56;45.81;98038.41;5073204;28;20410;-77
2022/08/10 07:26:56;;;;;;;2.45;1.50;;;21.10;59.90;;;20.62;45.72;98031.81;5073672;28;20431;-77
2022/08/10 07:29:30;;;;;;;3.70;1.77;;;21.20;59.90;;;20.69;45.41;98029.53;5073568;28;20395;-77
2022/08/10 07:31:57;;;;;;;3.10;1.40;;;21.30;59.60;;;20.75;45.11;98036.44;5073498;28;20418;-76
2022/08/10 07:34:26;;;;;;;7.50;1.50;;;21.30;59.40;;;20.80;44.77;98030.94;5072942;28;20482;-77
2022/08/10 07:36:54;;;;;;;5.00;1.80;;;21.40;59.00;;;20.85;44.68;98030.81;5073381;28;20442;-77
2022/08/10 07:39:23;;;;;;;3.90;1.50;;;21.40;58.90;;;20.93;44.62;98035.47;5073380;28;20431;-77
2022/08/10 07:41:51;;;;;;;4.10;1.70;;;21.50;59.00;;;20.97;43.96;98033.78;5073081;28;20453;-77
2022/08/10 07:44:24;;;;;;;4.75;1.48;;;21.50;58.10;;;21.03;44.31;98037.16;5072821;28;20403;-77
2022/08/10 07:46:52;;;;;;;3.93;1.50;;;21.60;58.40;;;21.07;44.28;98038.94;5073308;28;20399;-77
2022/08/10 07:49:24;;;;;;;3.80;1.45;;;21.60;58.50;;;21.12;43.87;98036.16;5073211;28;20841;-76
2022/08/10 07:51:55;;;;;;;5.05;1.60;;;21.70;58.20;;;21.18;44.01;98031.47;5073108;28;20990;-77
2022/08/10 07:54:24;;;;;;;2.65;1.30;;;21.70;58.20;;;21.23;43.96;98039.44;5072803;28;20431;-77
2022/08/10 07:56:54;;;;;;;2.72;1.50;;;21.80;58.20;;;21.29;43.60;98030.13;5072684;28;20398;-77
2022/08/10 07:59:28;;;;;;;4.53;1.90;;;21.80;57.90;;;21.36;42.96;98032.41;5073160;28;20435;-77
2022/08/10 08:01:57;;;;;;;3.53;1.40;;;21.90;57.20;;;21.42;42.23;98031.19;5073084;28;20392;-77
2022/08/10 08:04:24;;;;;;;2.30;1.40;;;22.00;56.50;;;21.51;42.52;98032.03;5072429;28;20991;-77
2022/08/10 08:06:52;;;;;;;4.22;1.50;;;22.10;57.00;;;21.58;42.39;98024.31;5072994;28;20821;-77
2022/08/10 08:09:19;;;;;;;3.97;1.70;;;22.10;56.70;;;21.63;42.28;98033.09;5073011;28;20983;-77
2022/08/10 08:11:46;;;;;;;4.30;1.50;;;22.20;56.60;;;21.71;41.87;98034.25;5072549;28;20415;-77
2022/08/10 08:14:14;;;;;;;3.27;1.60;;;22.20;56.10;;;21.78;41.98;98023.84;5072427;28;20496;-77
2022/08/10 08:16:47;;;;;;;2.83;1.75;;;22.30;56.10;;;21.89;42.03;98025.16;5072884;28;20424;-77
2022/08/10 08:19:15;;;;;;;6.07;1.60;;;22.40;56.20;;;21.98;42.09;98025.25;5072891;28;20984;-77
2022/08/10 08:21:42;;;;;;;2.35;1.50;;;22.50;56.30;;;22.09;41.89;98025.78;5072604;28;20404;-77
2022/08/10 08:24:09;;;;;;;4.40;1.80;;;22.60;56.10;;;22.20;40.57;98021.69;5072129;28;20516;-77
2022/08/10 08:26:37;;;;;;;3.38;1.45;;;22.70;54.70;;;22.28;40.10;98027.13;5072640;28;20430;-78
2022/08/10 08:29:04;;;;;;;3.65;1.65;;;22.80;54.20;;;22.37;39.34;98022.56;5072669;28;20884;-77
2022/08/10 08:31:31;;;;;;;3.25;1.67;;;23.00;53.50;;;22.48;39.73;98028.47;5071166;28;20780;-77
2022/08/10 08:34:01;;;;;;;6.25;1.80;;;23.00;53.90;;;22.61;40.01;98027.56;5072054;28;20513;-77
2022/08/10 08:36:28;;;;;;;3.78;1.50;;;23.20;54.10;;;22.72;39.95;98025.38;5072491;28;20873;-77
2022/08/10 08:38:55;;;;;;;2.53;1.20;;;23.20;54.10;;;22.85;39.90;98021.00;5072427;28;20396;-76
2022/08/10 08:41:52;;;;;;;2.50;1.50;;;23.40;54.10;;;22.96;39.72;98020.38;5072384;28;20396;-76
2022/08/10 08:44:26;;;;;;;3.13;1.40;;;23.50;53.90;;;23.06;38.77;98027.38;5069221;28;20423;-75
2022/08/10 08:47:24;;;;;;;4.55;1.60;;;23.60;53.00;;;23.16;38.41;98019.75;5072283;28;20399;-77
2022/08/10 08:50:10;;;;;;;3.28;1.67;;;23.70;52.40;;;23.28;38.83;98026.44;5072194;28;20487;-76
2022/08/10 08:52:52;;;;;;;3.05;1.55;;;23.70;52.90;;;23.36;38.28;98012.13;5072006;28;20549;-76
2022/08/10 08:55:45;;;;;;;2.20;1.52;;;23.90;52.50;;;23.49;38.13;98025.50;5071983;28;20403;-77
2022/08/10 08:58:37;;;;;;;2.80;1.20;;;24.00;52.20;;;23.64;38.08;98024.22;5072004;28;20413;-77
2022/08/10 09:01:30;;;;;;;3.45;1.50;;;24.10;52.10;;;23.75;37.80;98022.78;5071917;28;20387;-77
2022/08/10 09:04:22;;;;;;;2.67;1.55;;;24.20;51.90;;;23.81;37.13;98024.19;5071462;28;20396;-77
2022/08/10 09:07:16;;;;;;;4.43;1.67;;;24.30;51.40;;;23.89;36.36;98017.16;5071878;28;20403;-77
2022/08/10 09:10:03;;;;;;;3.03;1.58;;;24.40;50.20;;;24.01;36.36;98016.50;5071084;28;20777;-77
2022/08/10 09:12:46;;;;;;;4.38;1.60;;;24.50;50.20;;;24.16;36.15;98018.66;5071441;28;20454;-76
2022/08/10 09:15:25;;;;;;;5.87;1.97;;;24.60;50.00;;;24.23;35.18;98019.78;5071649;28;20403;-77
2022/08/10 09:18:01;;;;;;;3.15;1.50;;;24.70;48.90;;;24.30;35.05;98020.06;5053729;28;20403;-77
2022/08/10 09:20:39;;;;;;;2.75;1.40;;;24.80;48.70;;;24.42;35.16;98022.13;5071501;28;20403;-76
2022/08/10 09:23:16;;;;;;;3.53;1.48;;;24.80;48.80;;;24.50;34.51;98021.28;5071102;28;20663;-77
2022/08/10 09:25:50;;;;;;;2.30;1.30;;;25.00;48.20;;;24.61;34.35;98017.06;5071370;28;20773;-76
2022/08/10 09:28:24;;;;;;;3.38;1.25;;;25.10;48.30;;;24.67;31.78;98007.63;5071459;28;20400;-76
2022/08/10 09:30:58;;;;;;;5.22;1.30;;;25.20;45.20;;;24.77;31.98;98006.47;5071268;28;20398;-76
2022/08/10 09:33:41;;;;;;;3.70;1.13;;;25.30;45.50;;;24.87;31.52;98008.81;5070595;28;20425;-76
2022/08/10 09:36:23;;;;;;;3.75;1.40;;;25.30;44.80;;;24.98;30.92;98009.22;5071311;28;20880;-76
2022/08/10 09:39:04;;;;;;;2.60;1.23;;;25.40;44.40;;;25.06;30.03;98000.25;5071244;28;20396;-77
2022/08/10 09:41:57;;;;;;;2.83;1.30;;;25.60;43.20;;;25.15;30.21;98005.59;5071129;28;20850;-76
2022/08/10 09:44:44;;;;;;;3.03;1.17;;;25.60;43.40;;;25.23;29.19;98002.03;5070618;28;20485;-76
2022/08/10 09:47:30;;;;;;;1.80;1.05;;;25.70;42.70;;;25.38;29.65;98004.94;5071000;28;20392;-77
2022/08/10 09:50:15;;;;;;;2.92;1.40;;;25.80;42.90;;;25.51;29.67;98011.19;5071067;28;20460;-76
2022/08/10 09:53:00;;;;;;;2.83;1.55;;;25.90;43.70;;;25.57;28.35;98001.72;5070677;28;20495;-77
2022/08/10 09:55:46;;;;;;;2.60;1.30;;;26.10;41.40;;;25.74;28.16;98006.22;5070802;28;20492;-77
2022/08/10 09:58:35;;;;;;;2.35;1.30;;;26.20;41.30;;;26.03;27.88;98000.63;5070240;28;21582;-76
2022/08/10 10:01:10;;;;;;;2.83;1.05;;;26.50;41.00;;;26.40;27.69;97987.13;5070860;28;20396;-77
2022/08/10 10:03:49;;;;;;;2.40;1.30;;;27.00;40.60;;;26.80;27.02;97992.63;5070260;28;20485;-77
2022/08/10 10:06:22;;;;;;;4.32;1.35;;;27.60;40.20;;;27.21;26.50;97988.84;5070764;28;20399;-77
2022/08/10 10:09:01;;;;;;;7.10;1.20;;;28.00;39.20;;;27.53;25.49;97984.31;5070744;28;20457;-77
2022/08/10 10:11:43;;;;;;;2.72;1.20;;;28.40;37.70;;;27.84;25.13;97992.53;5070566;28;20400;-77
2022/08/10 10:14:22;;;;;;;3.13;1.20;;;28.80;37.30;;;28.10;23.39;97984.69;5070170;28;20795;-77
2022/08/10 10:17:01;;;;;;;3.53;1.10;;;29.00;35.20;;;28.09;23.58;97993.97;5070616;28;20387;-77
2022/08/10 10:19:53;;;;;;;4.90;1.30;;;28.80;35.20;;;27.99;23.77;97977.38;5070642;28;20872;-78
2022/08/10 10:22:53;;;;;;;6.72;1.60;;;28.60;35.30;;;27.70;24.66;97994.88;5070618;28;20403;-76
2022/08/10 10:25:31;;;;;;;2.88;1.40;;;28.30;36.50;;;27.53;24.91;97985.09;5066005;28;20422;-79
2022/08/10 10:28:15;;;;;;;5.65;1.25;;;28.10;37.20;;;27.43;25.01;97979.34;5070505;28;20403;-78
2022/08/10 10:30:54;;;;;;;2.60;1.30;;;27.90;37.50;;;27.38;25.22;97966.78;5070643;28;20392;-78
2022/08/10 10:33:34;;;;;;;3.50;1.10;;;27.80;37.60;;;27.42;25.25;97980.50;5069974;28;20425;-78
2022/08/10 10:36:03;;;;;;;2.43;1.30;;;27.80;37.40;;;27.49;24.94;97969.81;5070405;28;20435;-76
2022/08/10 10:38:35;;;;;;;2.40;1.40;;;27.90;36.90;;;27.58;24.41;97974.00;5070339;28;20396;-76
2022/08/10 10:41:12;;;;;;;3.33;1.33;;;28.00;36.90;;;27.71;24.41;97975.50;5070401;28;20404;-77